Aviation Digital Data Service (ADDS)

Output produced by METARs form (2232 UTC 30 March 2017)
found at http://www.aviationweather.gov/adds/metars/
 
KEAR 301720Z 3018/3118 36014G20KT P6SM SCT008 OVC013 
     FM310100 01010KT 6SM BR OVC010 
     FM310800 02006KT 2SM BR OVC008 AMD LTD TO CLD VIS AND WIND
       
KEAT 302011Z 3020/3118 30020G32KT P6SM FEW100 
     FM310200 30014KT P6SM SKC 
     FM310700 30010KT P6SM SKC 
     FM311400 30005KT P6SM SKC
       
KEAU 302116Z 3021/3118 06012G18KT P6SM OVC025 
     FM310100 05008KT P6SM SCT025 OVC030 
     FM311100 02006KT P6SM BKN030 
     FM311500 02009KT P6SM SCT025
       
KECG 301735Z 3018/3118 09009KT P6SM BKN070 
     FM310000 09010KT P6SM BKN090 
     FM310600 13007KT P6SM BKN050 
     FM311000 14010KT P6SM SHRA OVC070 
     FM311400 16015G23KT 4SM SHRA OVC012
       
TAF AMD KEDW 301821Z 3018/3124 27025G35KT 9999 FEW050 FEW180 BKN300 530009 QNH2984INS 
     TEMPO 3020/3101 29040G50KT 4800 BLDU 560009 560909 
     BECMG 3104/3105 31015G25KT 9999 SKC 520009 QNH2990INS 
     BECMG 3108/3109 30012KT 9999 SKC QNH2993INS 
     BECMG 3121/3122 27012G20KT 9999 SKC 510009 QNH2995INS TX23/3022Z TN03/3114Z
       
KEED 301729Z 3018/3118 22015G23KT P6SM SCT250 
     FM302200 25030G40KT P6SM SCT250 
     FM310200 32020G28KT P6SM FEW150 
     FM310800 31012G20KT P6SM FEW150
       
KEET 302107Z 3021/3118 18010G20KT P6SM -RA VCTS SCT045CB BKN150 
     TEMPO 3021/3023 20012G25KT 3SM TSRA OVC025CB 
     FM310700 24005KT P6SM SHRA BKN030 
     FM311200 25003KT P6SM SCT050
       
TAF KEFD 302000Z 3020/0102 30009KT 9999 FEW030 QNH2982INS 
     BECMG 3100/3101 28006KT 9999 SKC QNH2980INS 
     BECMG 3118/3119 19012G18KT 9999 SKC QNH2979INS 
     BECMG 3123/3124 16009KT 9999 SKC QNH2979INS TX25/3021Z TN14/3112Z
       
KEGE 301739Z 3018/3118 VRB04KT P6SM SCT060 BKN110 
     FM302000 23008KT P6SM SCT060 BKN110 
     FM310200 VRB04KT P6SM VCSH SCT030 BKN060 
     FM310600 VRB03KT P6SM -RA SCT020 BKN040 
     FM311200 VRB03KT P6SM VCSH SCT030 BKN060
       
TAF AMD KEGI 302100Z 3021/3121 16010G15KT 9999 VCSH BKN018 BKN150 QNH2983INS 
     BECMG 3022/3023 18012G20KT 8000 -SHRA VCTS BKN015CB QNH2980INS 
     TEMPO 3023/3105 19025G30KT 4800 -TSRA BKN015CB 
     BECMG 3108/3109 34006KT 3200 BR BKN009 QNH2978INS 
     BECMG 3114/3115 30009KT 9999 NSW BKN020 QNH2988INS TX27/3021Z TN18/3112Z
       
KEKN 301731Z 3018/3118 15010G18KT P6SM BKN070 
     FM310000 17010G19KT P6SM BKN090 
     FM310900 17010G17KT 6SM SHRA OVC040 
     FM311100 16009G15KT 5SM SHRA OVC025 
     FM311700 20006KT 3SM SHRA OVC010
       
KZZV 301723Z 3018/3118 15008KT P6SM BKN080 
     FM310000 15010KT P6SM VCSH OVC090 WS020/20040KT 
     FM310300 16008KT 5SM -SHRA OVC025 WS020/20045KT 
     FM310900 15010KT 3SM -SHRA OVC010 WS020/20045KT 
     FM311200 17008KT 3SM -SHRA OVC008 WS020/20045KT 
     FM311500 20007KT 5SM -SHRA OVC015
       
KELP 301721Z 3018/3118 23011KT P6SM FEW200 
     FM302000 25018G28KT P6SM FEW250 
     FM310300 23014KT P6SM FEW250 
     FM311600 24020G30KT P6SM SCT250
       
KELY 301805Z 3018/3118 25010KT P6SM VCSH SCT030 BKN050 
     FM302100 31020G30KT 3SM -SHSN SCT015 OVC030 
     FM310200 34015G25KT 5SM -SHSN OVC050 AMD NOT SKED
       
KEKO 301908Z 3019/3118 33010G20KT P6SM -SN SCT020 BKN035 
     FM310300 27022G32KT P6SM VCSH SCT025 BKN040
       
TAF AMD KEND 302213Z 3022/3124 34012G18KT 9999 FEW040 QNH2972INS 
     BECMG 3023/3024 VRB06KT 9999 FEW100 QNH2969INS 
     BECMG 3114/3115 09015G20KT 9999 SKC QNH2978INS TX14/3022Z TN04/3110Z
       
KENV 302223Z 3022/3118 33020G30KT P6SM -RA SCT015 BKN035 OVC060 
     FM310100 33022G32KT P6SM VCSH OVC060 AMD LTD TO CLD VIS AND WIND
       
KENW 302142Z 3022/3118 06022G30KT 3SM BR VCSH OVC004 
     FM310000 04015G24KT 2SM -RA BR OVC003 
     FM310500 03014KT 2SM -RA BR OVC003 
     FM310800 02013G21KT 1SM BR VCSH OVC003 
     FM311700 36014G25KT P6SM OVC010
       
KERI 301741Z 3018/3118 10012KT 6SM -SHRA BR OVC060 
     FM302000 09015G25KT P6SM OVC060 
     FM310000 12015G25KT P6SM VCSH OVC060 
     FM311000 14010KT 5SM -SHRA OVC035 
     FM311500 12010KT 4SM -DZ BR OVC025
       
KEUG 301735Z 3018/3118 32007KT P6SM SCT025 BKN045 
     FM310000 32005KT P6SM BKN050 
     FM311000 VRB02KT 4SM BR BKN015
       
KEUL 301721Z 3018/3118 31020G25KT 4SM -SHRA OVC007 
     FM301900 31030G42KT 6SM -SHRA OVC007 
     FM310100 29030G38KT P6SM BKN015 
     FM310500 29030G38KT P6SM SCT050 
     FM311100 29025G30KT P6SM VCFG SCT025 
     FM311600 30028G38KT P6SM SKC
       
KEVV 302106Z 3021/3118 20013G21KT P6SM VCTS SCT035CB BKN060 
     TEMPO 3021/3023 3SM TSRA BR BKN015CB 
     FM302300 23009KT P6SM SCT040 
     FM310400 23006KT P6SM VCSH SCT025 BKN040 
     FM311000 24007KT P6SM OVC015 
     FM311500 26012G19KT P6SM OVC025
       
KEVW 302222Z 3022/3118 32008KT 5SM -RA SCT009 OVC020 
     TEMPO 3023/3101 3SM RASN SCT007 OVC015 
     FM310100 05009KT 5SM -RA SCT008 BKN015 
     FM310700 05010KT P6SM VCSH SCT020 BKN040
       
KEWN 301731Z 3018/3118 13005KT P6SM OVC090 
     FM311100 15010KT P6SM OVC025 
     FM311200 16010KT 5SM TSRA OVC015CB 
     FM311600 18010KT P6SM VCTS OVC025CB
       
KEWR 302110Z 3021/3124 17008KT P6SM FEW060 BKN120 
     FM310600 14006KT P6SM BKN050 
     FM311000 10010KT 5SM -RA BKN010 
     FM311500 09014G20KT 2SM -RA OVC005 
     FM311800 09020G28KT 2SM RA OVC004
       
KEYW 302028Z 3020/3118 14009KT P6SM SKC